Relevés horaires Matro (Suisse)


Relevés horaires à Matro - Samedi 28 Mai 2022
Heure UTC1 Température [°C] Vent [km/h] Hum. [%] Pres.4 [hPa] Visi. [Km] Nébu. [octa] Préc.5 [mm] Cond.
2m. Res. Ros. Dir.2 Vit. Moy. Raf.3
23:00 4.0 -0.7 -3.4 NNO 24.1 -- 42.6 58 850(-0.6/3h) -- -- -- --
22:00 4.2 -1.4 -3.3 NNO 35.2 -- 44.4 58 850(-0.7/3h) -- -- -- --
21:00 4.3 -1.1 -3.3 NNO 33.3 -- 68.5 58 850(0.2/3h) -- -- -- --
20:00 4.5 -1.4 -2.9 NNO 40.7 -- 55.6 59 850(0.2/3h) -- -- -- --
19:00 5.1 -0.9 -3.0 NNO 44.4 -- 68.5 56 850(-0.5/3h) -- -- -- --
18:00 6.2 0.7 -3.3 NNO 42.6 -- 64.8 50 850(-1.1/3h) -- -- -- --
17:00 7.0 1.8 -2.9 NNO 42.6 -- 64.8 49 850(-1.8/3h) -- -- -- --
16:00 7.7 2.5 -2.9 NNO 46.3 -- 61.1 47 850(-1.8/3h) -- -- -- --
15:00 7.8 3 -3.4 NNO 40.7 -- 59.3 45 850(-1.8/3h) -- -- -- --
14:00 8.2 4.1 -3.4 NNO 31.5 -- 57.4 44 850(-1.8/3h) -- -- -- --
13:00 7.8 3.6 -4.1 NNO 31.5 -- 48.2 43 850(-1.2/3h) -- -- -- --
12:00 7.7 3.7 -3.9 NNO 27.8 -- 55.6 44 850(-0.8/3h) -- -- -- --
11:00 7.9 3.7 -3.3 NNO 31.5 -- 55.6 45 850(-0.5/3h) -- -- -- --
10:00 7.9 4 -3.6 NNO 27.8 -- 46.3 44 850(-0.5/3h) -- -- -- --
09:00 7.8 4.2 -2.7 NNO 24.1 -- 51.9 47 850(-0.5/3h) -- -- -- --
08:00 7.4 3.4 -1.7 NNO 27.8 -- 48.2 52 850(-0.5/3h) -- -- -- --
07:00 7.6 3.6 0.4 NNO 27.8 -- 51.9 60 850(-0.3/3h) -- -- -- --
06:00 7.4 3.2 0.7 NNO 29.6 -- 50.0 62 850(-0.5/3h) -- -- -- --
05:00 7.2 2.7 0.3 NNO 33.3 -- 50.0 61 850(-1.1/3h) -- -- -- --
04:00 7.4 3.1 0.5 NNO 31.5 -- 44.4 62 850(-1.8/3h) -- -- -- --
03:00 7.7 3.5 1.0 NNO 31.5 -- 44.4 62 850(-2.1/3h) -- -- -- --
02:00 8.1 4.3 1.1 NNO 27.8 -- 35.2 61 850(-1.9/3h) -- -- -- --
01:00 8.2 4.6 1.7 NNO 25.9 -- 38.9 64 850(-1.5/3h) -- -- -- --
00:00 8.9 5.5 1.5 NNO 25.9 -- 57.4 60 850(-1.0/3h) -- -- -- --

1 Coordinated Universal Time. Actuellement il est 21:00 locale et 19:00 UTC.

2 Le vent souffle depuis la direction indiquée vers la direction oposée.

3 Les rafales max. sont disponible 40 min après l'heure du relevé.

4 Pour les stations d'altitude (plus de 600m) le géopotentiel du niveau le plus proche de la pression obligatoire est indiqué.

5 Les stations disposant d'un diffuseur peuvent indiquer "trace". Cela signifie que des précipitations ont touchés le sol mais que la quantité est inférieure à 0.1 mm.

Copyright

Les données affichées sur cette page sont la propriété exclusive de Météo Suisse.

Récapitulatif de la journée
Température [°C] Vent [km/h] Ensoleillement4 [h] Precipitations totale5 [mm] Pression [Hpa]
Min1 Max.2 Moy.3 Max. Min Max.
7.1 8.6 0 68.5 14 h 12 min 0 850.0 850.0

1 Température minimale relevée entre 18:00 UTC la veille et 18:00 UTC le jour donné.

2 Température maximale relevée entre 06:00 UTC le jour donné et 06:00 UTC le lendemain.

3 Vent moyen de la journée basé sur les relevés horaires.

4 Ensoleillement en heures relevé entre 06:00 UTC la veille et 06:00 UTC le jour donné.

5 Précipitations totales tombées entre 06:00 UTC la jour donné et 06:00 UTC le lendemain.

Graphiques horaires